Time;durP1;ratioP1;P1;durP2;ratioP2;P2;SDS_P1;SDS_P2;PMS_P1;PMS_P2;Temp;Humidity;BMP_temperature;BMP_pressure;BME280_temperature;BME280_humidity;BME280_pressure;Samples;Min_cycle;Max_cycle;Signal;HPM_P1;HPM_P2
2022/12/23 00:02:02;;;;;;;;;0.00;0.00;;;;;15.14;100.00;100539.91;5057575;28;49335;-73
2022/12/23 00:04:27;;;;;;;;;0.00;0.00;;;;;15.11;100.00;100534.63;5057825;28;56986;-74
2022/12/23 00:06:53;;;;;;;;;0.00;0.00;;;;;15.11;100.00;100531.97;5039379;28;59533;-73
2022/12/23 00:09:18;;;;;;;;;0.00;0.00;;;;;15.16;100.00;100539.88;5045913;28;45426;-73
2022/12/23 00:15:04;;;;;;;;;0.00;0.00;;;;;15.13;100.00;100545.25;5054464;28;54009;-74
2022/12/23 00:17:12;;;;;;;;;0.33;0.00;;;;;15.19;100.00;100535.44;5058016;28;45868;-73
2022/12/23 00:19:38;;;;;;;;;0.00;0.00;;;;;15.17;100.00;100534.53;5057219;28;58096;-73
2022/12/23 00:22:03;;;;;;;;;1.00;0.00;;;;;15.22;100.00;100544.25;5057080;28;59069;-73
2022/12/23 00:24:28;;;;;;;;;0.00;0.00;;;;;15.22;100.00;100546.91;5057598;28;56739;-73
2022/12/23 00:26:54;;;;;;;;;0.00;0.00;;;;;15.23;100.00;100560.19;5055879;28;62220;-74
2022/12/23 00:29:19;;;;;;;;;0.00;0.00;;;;;15.24;100.00;100566.41;5057067;28;63413;-74
2022/12/23 00:31:44;;;;;;;;;0.00;0.00;;;;;15.20;100.00;100549.59;5056686;28;55681;-74
2022/12/23 00:34:11;;;;;;;;;0.00;0.00;;;;;15.21;100.00;100548.69;5057219;28;52871;-74
2022/12/23 00:36:37;;;;;;;;;1.67;0.00;;;;;15.18;100.00;100543.44;5057490;28;46469;-73
2022/12/23 00:44:30;;;;;;;;;0.33;0.33;;;;;15.06;100.00;100533.81;5055831;28;45220;-74
2022/12/23 00:49:40;;;;;;;;;1.67;0.67;;;;;15.07;100.00;100535.56;5111371;27;45413;-73
2022/12/23 00:49:51;;;;;;;;;1.00;1.00;;;;;15.08;100.00;100541.78;5093841;27;45322;-74
2022/12/23 00:52:17;;;;;;;;;0.67;0.00;;;;;15.12;100.00;100556.78;5093857;27;57747;-73
2022/12/23 00:54:42;;;;;;;;;2.00;1.00;;;;;15.09;100.00;100555.06;5093387;27;54925;-74
2022/12/23 00:57:07;;;;;;;;;0.00;0.00;;;;;15.09;100.00;100559.50;5094061;27;45278;-73
2022/12/23 00:59:33;;;;;;;;;0.33;0.33;;;;;15.09;100.00;100563.03;5093139;27;61396;-73
2022/12/23 01:07:26;;;;;;;;;2.67;1.33;;;;;15.11;100.00;100578.97;5093091;27;45280;-73
2022/12/23 01:09:51;;;;;;;;;1.00;1.00;;;;;15.14;100.00;100584.25;5090776;27;45234;-73
2022/12/23 01:12:17;;;;;;;;;2.00;0.00;;;;;15.14;100.00;100593.09;5091794;27;53805;-73
2022/12/23 01:14:43;;;;;;;;;0.00;0.00;;;;;15.11;100.00;100574.50;5093524;27;45588;-74
2022/12/23 01:17:08;;;;;;;;;0.00;0.00;;;;;15.13;100.00;100577.19;5093033;27;46698;-74
2022/12/23 01:19:33;;;;;;;;;0.00;0.00;;;;;15.12;100.00;100570.94;5092885;27;55955;-73
2022/12/23 01:21:59;;;;;;;;;0.00;0.00;;;;;15.09;100.00;100572.78;5093409;27;45426;-73
2022/12/23 01:24:28;;;;;;;;;0.00;0.00;;;;;15.13;100.00;100571.88;5092938;27;54664;-73
2022/12/23 01:26:53;;;;;;;;;0.00;0.00;;;;;15.13;100.00;100580.72;5093032;27;47465;-74
2022/12/23 01:29:19;;;;;;;;;0.00;0.00;;;;;15.12;100.00;100578.06;5093542;27;45328;-73
2022/12/23 01:31:44;;;;;;;;;0.00;0.00;;;;;15.13;100.00;100578.06;5092687;27;54748;-73
2022/12/23 01:34:09;;;;;;;;;0.00;0.00;;;;;15.10;100.00;100575.41;5088348;27;59137;-73
2022/12/23 01:36:35;;;;;;;;;0.00;0.00;;;;;15.12;100.00;100575.41;5093378;27;45773;-73
2022/12/23 01:39:00;;;;;;;;;0.00;0.00;;;;;15.13;100.00;100574.53;5092079;27;45477;-73
2022/12/23 01:45:04;;;;;;;;;0.00;0.00;;;;;15.17;100.00;100587.72;5091526;27;45312;-73
2022/12/23 01:47:40;;;;;;;;;0.00;0.00;;;;;15.18;100.00;100591.31;5069152;27;47368;-73
2022/12/23 01:50:16;;;;;;;;;0.00;0.00;;;;;15.19;100.00;100588.63;5073108;27;45444;-73
2022/12/23 01:52:59;;;;;;;;;0.33;0.00;;;;;15.15;100.00;100573.59;5089431;27;45536;-73
2022/12/23 01:55:26;;;;;;;;;0.00;0.00;;;;;15.18;100.00;100580.66;5084407;27;45515;-73
2022/12/23 01:57:54;;;;;;;;;0.00;0.00;;;;;15.14;100.00;100577.16;5080579;27;46743;-73
2022/12/23 02:05:47;;;;;;;;;0.00;0.00;;;;;15.14;100.00;100587.78;5075938;28;45470;-73
2022/12/23 02:11:35;;;;;;;;;0.00;0.00;;;;;15.05;100.00;100582.56;5078133;28;45437;-73
2022/12/23 02:17:08;;;;;;;;;1.00;0.00;;;;;15.03;100.00;100573.75;5092048;27;45497;-73
2022/12/23 02:20:02;;;;;;;;;0.00;0.00;;;;;15.02;100.00;100573.72;5077458;28;47377;-73
2022/12/23 02:23:06;;;;;;;;;0.00;0.00;;;;;15.07;100.00;100572.78;5078390;28;45365;-73
2022/12/23 02:25:52;;;;;;;;;0.00;0.00;;;;;15.07;100.00;100575.44;5068458;28;45291;-73
2022/12/23 02:28:45;;;;;;;;;1.00;0.00;;;;;15.08;100.00;100568.38;5085590;27;45457;-74
2022/12/23 02:31:20;;;;;;;;;0.00;0.00;;;;;15.06;100.00;100563.06;5078524;28;47168;-73
2022/12/23 02:34:09;;;;;;;;;0.00;0.00;;;;;15.07;100.00;100566.59;5067216;28;45570;-73
2022/12/23 02:36:49;;;;;;;;;0.67;0.00;;;;;15.09;100.00;100576.31;5065698;27;45430;-73
2022/12/23 02:39:39;;;;;;;;;1.33;0.00;;;;;15.10;100.00;100575.41;5064864;28;45656;-73
2022/12/23 02:42:13;;;;;;;;;2.33;0.00;;;;;15.04;100.00;100559.53;5064552;28;47202;-73
2022/12/23 02:44:53;;;;;;;;;0.00;0.00;;;;;15.10;100.00;100564.78;5075090;28;45280;-73
2022/12/23 02:47:23;;;;;;;;;2.00;0.00;;;;;15.08;100.00;100557.75;5080728;27;45346;-73
2022/12/23 02:49:54;;;;;;;;;4.00;0.00;;;;;15.07;100.00;100567.47;5076946;28;45248;-73
2022/12/23 02:52:23;;;;;;;;;0.33;0.00;;;;;15.11;100.00;100569.19;5070188;27;47591;-73
2022/12/23 02:54:52;;;;;;;;;0.00;0.00;;;;;15.10;100.00;100575.41;5093721;27;45484;-73
2022/12/23 02:57:21;;;;;;;;;0.33;0.00;;;;;15.00;100.00;100552.50;5076929;27;45520;-73
2022/12/23 02:59:49;;;;;;;;;0.00;0.00;;;;;15.07;100.00;100569.25;5078417;28;45559;-73
2022/12/23 03:02:15;;;;;;;;;1.33;0.00;;;;;15.05;100.00;100571.94;5072540;28;46528;-73
2022/12/23 03:04:41;;;;;;;;;2.00;0.00;;;;;15.00;100.00;100565.78;5077863;27;61701;-73
2022/12/23 03:07:20;;;;;;;;;3.33;0.00;;;;;14.98;100.00;100567.59;5076250;28;45322;-73
2022/12/23 03:09:54;;;;;;;;;0.00;0.00;;;;;14.97;100.00;100563.19;5076359;28;45222;-73
2022/12/23 03:12:21;;;;;;;;;1.00;0.00;;;;;15.01;100.00;100579.97;5076029;28;47522;-73
2022/12/23 03:15:02;;;;;;;;;1.00;0.00;;;;;15.01;100.00;100575.50;5093667;27;45423;-73
2022/12/23 03:17:35;;;;;;;;;0.00;0.00;;;;;14.99;100.00;100556.06;5078090;27;45410;-73
2022/12/23 03:20:13;;;;;;;;;0.00;0.00;;;;;15.03;100.00;100543.63;5086085;27;45416;-73
2022/12/23 03:23:04;;;;;;;;;0.00;0.00;;;;;15.01;100.00;100551.59;5093896;27;46895;-73
2022/12/23 03:25:39;;;;;;;;;0.00;0.00;;;;;15.03;100.00;100549.81;5077741;28;45474;-73
2022/12/23 03:28:10;;;;;;;;;0.00;0.00;;;;;15.01;100.00;100561.34;5072424;28;45315;-73
2022/12/23 03:30:38;;;;;;;;;3.00;0.00;;;;;15.01;100.00;100559.56;5093367;27;45506;-73
2022/12/23 03:33:11;;;;;;;;;2.00;0.00;;;;;14.99;100.00;100560.50;5080262;27;47277;-73
2022/12/23 03:35:42;;;;;;;;;0.67;0.00;;;;;14.98;100.00;100556.09;5093201;27;45322;-72
2022/12/23 03:38:09;;;;;;;;;0.00;0.00;;;;;14.97;100.00;100557.88;5078278;27;45546;-72
2022/12/23 03:40:40;;;;;;;;;1.00;1.00;;;;;14.97;100.00;100560.53;5082575;27;56077;-72
2022/12/23 03:43:11;;;;;;;;;2.00;0.00;;;;;14.92;100.00;100568.53;5073333;28;46426;-73
2022/12/23 03:45:42;;;;;;;;;0.00;0.00;;;;;14.97;100.00;100570.25;5077373;27;45381;-73
2022/12/23 03:48:16;;;;;;;;;1.00;1.00;;;;;14.91;100.00;100549.94;5091019;27;45468;-73
2022/12/23 03:50:43;;;;;;;;;1.67;0.33;;;;;14.94;100.00;100566.72;5077576;28;45381;-73
2022/12/23 03:53:19;;;;;;;;;3.00;0.00;;;;;14.91;100.00;100555.25;5073622;28;46721;-73
2022/12/23 03:55:51;;;;;;;;;1.33;0.00;;;;;14.93;100.00;100562.31;5075024;28;45652;-72
2022/12/23 03:58:23;;;;;;;;;0.00;0.00;;;;;14.92;100.00;100560.56;5077361;28;45369;-72
2022/12/23 04:01:02;;;;;;;;;0.67;0.33;;;;;14.91;100.00;100563.22;5084315;27;45658;-72
2022/12/23 04:03:36;;;;;;;;;2.33;0.00;;;;;14.88;100.00;100550.84;5076905;28;47328;-73
2022/12/23 04:06:04;;;;;;;;;1.00;1.00;;;;;14.90;100.00;100550.84;5076900;28;45362;-73
2022/12/23 04:08:35;;;;;;;;;3.33;0.00;;;;;14.84;100.00;100538.50;5075159;28;45376;-73
2022/12/23 04:11:01;;;;;;;;;2.00;0.33;;;;;14.86;100.00;100527.81;5093438;27;45341;-73
2022/12/23 04:13:27;;;;;;;;;4.00;1.00;;;;;14.84;100.00;100534.97;5075175;28;46458;-73
2022/12/23 04:15:52;;;;;;;;;0.67;0.00;;;;;14.79;100.00;100534.13;5077204;27;45333;-73
2022/12/23 04:18:18;;;;;;;;;0.33;0.33;;;;;14.84;100.00;100529.63;5076424;28;51568;-72
2022/12/23 04:20:43;;;;;;;;;0.00;0.00;;;;;14.86;100.00;100520.75;5076672;27;52477;-73
2022/12/23 04:23:09;;;;;;;;;0.00;0.00;;;;;14.88;100.00;100542.88;5076418;27;60905;-73
2022/12/23 04:25:34;;;;;;;;;2.33;0.00;;;;;14.88;100.00;100545.53;5076939;27;45389;-73
2022/12/23 04:27:59;;;;;;;;;0.67;0.00;;;;;14.86;100.00;100544.69;5073604;28;58135;-73
2022/12/23 04:30:25;;;;;;;;;2.00;0.00;;;;;14.86;100.00;100557.06;5077166;27;45426;-73
2022/12/23 04:32:50;;;;;;;;;1.00;0.00;;;;;14.81;100.00;100543.84;5076692;28;47622;-73
2022/12/23 04:35:15;;;;;;;;;0.67;0.67;;;;;14.83;100.00;100541.19;5076874;28;45351;-73
2022/12/23 04:37:41;;;;;;;;;2.00;0.00;;;;;14.80;100.00;100533.22;5076864;28;45782;-73
2022/12/23 04:40:07;;;;;;;;;0.00;0.00;;;;;14.84;100.00;100538.50;5075996;28;57567;-73
2022/12/23 04:42:33;;;;;;;;;2.00;0.33;;;;;14.82;100.00;100536.75;5073902;28;46423;-73
2022/12/23 04:44:58;;;;;;;;;0.00;0.00;;;;;14.86;100.00;100541.13;5076535;28;45335;-73
2022/12/23 04:47:23;;;;;;;;;1.00;0.00;;;;;14.86;100.00;100531.41;5074829;28;53827;-73
2022/12/23 04:49:49;;;;;;;;;0.00;0.00;;;;;14.86;100.00;100522.50;5075998;27;56143;-73
2022/12/23 04:52:14;;;;;;;;;1.00;0.00;;;;;14.89;100.00;100525.16;5076310;27;46317;-74
2022/12/23 04:54:39;;;;;;;;;2.00;0.67;;;;;14.91;100.00;100518.94;5075727;28;61731;-73
2022/12/23 04:57:05;;;;;;;;;2.00;0.00;;;;;14.93;100.00;100519.78;5076876;28;45864;-73
2022/12/23 04:59:32;;;;;;;;;0.00;0.00;;;;;14.94;100.00;100518.00;5075846;28;57170;-73
2022/12/23 05:01:58;;;;;;;;;0.00;0.00;;;;;14.96;100.00;100517.97;5072399;28;47451;-73
2022/12/23 05:04:23;;;;;;;;;0.00;0.00;;;;;14.98;100.00;100509.09;5076206;28;45298;-74
2022/12/23 05:06:49;;;;;;;;;1.33;1.00;;;;;15.00;100.00;100511.72;5076045;27;49447;-73
2022/12/23 05:09:14;;;;;;;;;0.00;0.00;;;;;15.04;100.00;100519.66;5076446;28;50565;-73
2022/12/23 05:11:39;;;;;;;;;0.67;0.67;;;;;15.06;100.00;100516.97;5072439;27;61906;-73
2022/12/23 05:14:05;;;;;;;;;0.00;0.00;;;;;15.09;100.00;100516.94;5074719;28;61844;-73
2022/12/23 05:16:30;;;;;;;;;0.00;0.00;;;;;15.09;100.00;100512.50;5075853;28;56236;-73
2022/12/23 05:18:56;;;;;;;;;0.00;0.00;;;;;15.09;100.00;100511.63;5076946;28;45420;-73
2022/12/23 05:21:22;;;;;;;;;1.00;1.00;;;;;15.14;100.00;100504.47;5075673;28;45619;-73
2022/12/23 05:23:47;;;;;;;;;2.33;1.00;;;;;15.13;100.00;100492.97;5076292;28;45356;-74
2022/12/23 05:26:12;;;;;;;;;1.00;1.00;;;;;15.15;100.00;100495.59;5075126;28;54441;-73
2022/12/23 05:28:38;;;;;;;;;1.00;1.00;;;;;15.17;100.00;100497.31;5076151;28;45255;-73
2022/12/23 05:31:06;;;;;;;;;0.00;0.00;;;;;15.23;100.00;100503.44;5075671;28;59506;-73
2022/12/23 05:33:32;;;;;;;;;3.00;0.33;;;;;15.20;100.00;100491.97;5078710;27;45425;-72
2022/12/23 05:35:57;;;;;;;;;1.00;0.00;;;;;15.25;100.00;100501.66;5204862;22;45403;-71
2022/12/23 05:38:23;;;;;;;;;2.00;0.00;;;;;15.24;100.00;100503.44;5037689;28;45691;-72
2022/12/23 05:40:48;;;;;;;;;2.00;0.00;;;;;15.24;100.00;100500.78;5054279;28;47818;-73
2022/12/23 05:43:14;;;;;;;;;0.00;0.00;;;;;15.23;100.00;100484.81;5045763;28;45304;-72
2022/12/23 05:45:40;;;;;;;;;2.00;0.00;;;;;15.26;100.00;100491.00;5040919;28;45459;-71
2022/12/23 05:48:05;;;;;;;;;0.67;0.00;;;;;15.26;100.00;100480.34;5056272;28;45431;-74
2022/12/23 05:50:31;;;;;;;;;0.00;0.00;;;;;15.29;100.00;100482.13;5057913;28;46289;-74
2022/12/23 05:52:56;;;;;;;;;1.00;0.00;;;;;15.27;100.00;100475.91;5055899;28;45264;-74
2022/12/23 05:55:23;;;;;;;;;0.00;0.00;;;;;15.29;100.00;100471.47;5055432;28;45356;-73
2022/12/23 05:57:49;;;;;;;;;0.00;0.00;;;;;15.31;100.00;100474.97;5050428;28;45194;-73
2022/12/23 06:00:15;;;;;;;;;2.67;0.00;;;;;15.32;100.00;100474.06;5057116;28;46583;-73
2022/12/23 06:02:40;;;;;;;;;1.00;0.00;;;;;15.29;100.00;100474.13;5049002;28;45336;-73
2022/12/23 06:05:06;;;;;;;;;1.00;0.00;;;;;15.32;100.00;100482.94;5049982;28;53231;-73
2022/12/23 06:07:31;;;;;;;;;1.33;0.00;;;;;15.32;100.00;100487.38;5050548;28;45679;-74
2022/12/23 06:09:57;;;;;;;;;1.33;0.00;;;;;15.34;100.00;100490.88;5042180;28;46213;-73
2022/12/23 06:12:22;;;;;;;;;0.00;0.00;;;;;15.33;100.00;100478.47;5041279;28;54368;-73
2022/12/23 06:14:47;;;;;;;;;2.00;0.00;;;;;15.33;100.00;100474.03;5046751;28;57006;-72
2022/12/23 06:17:13;;;;;;;;;1.00;0.00;;;;;15.34;100.00;100477.56;5058630;28;45250;-72
2022/12/23 06:19:38;;;;;;;;;0.00;0.00;;;;;15.30;100.00;100466.13;5058447;28;46561;-73
2022/12/23 06:22:03;;;;;;;;;0.00;0.00;;;;;15.35;100.00;100484.69;5054839;28;45336;-73
2022/12/23 06:24:29;;;;;;;;;0.67;0.00;;;;;15.33;100.00;100475.81;5057373;28;54777;-74
2022/12/23 06:26:54;;;;;;;;;0.00;0.00;;;;;15.32;100.00;100468.75;5042177;28;55754;-73
2022/12/23 06:29:20;;;;;;;;;0.00;0.00;;;;;15.35;100.00;100474.91;5056412;28;64832;-73
2022/12/23 06:31:46;;;;;;;;;0.00;0.00;;;;;15.34;100.00;100483.81;5058007;28;45432;-72
2022/12/23 06:34:12;;;;;;;;;0.00;0.00;;;;;15.34;100.00;100466.94;5053665;28;45418;-72
2022/12/23 06:36:37;;;;;;;;;0.00;0.00;;;;;15.34;100.00;100453.63;5057917;28;45485;-73
2022/12/23 06:39:03;;;;;;;;;2.00;0.00;;;;;15.31;100.00;100453.69;5056768;28;53508;-73
2022/12/23 06:41:28;;;;;;;;;0.00;0.00;;;;;15.31;100.00;100446.59;5052029;28;45665;-72
2022/12/23 06:43:53;;;;;;;;;0.00;0.00;;;;;15.30;100.00;100452.81;5044774;28;45713;-73
2022/12/23 06:46:19;;;;;;;;;0.33;0.00;;;;;15.30;100.00;100444.84;5047159;28;45301;-73
2022/12/23 06:48:44;;;;;;;;;0.00;0.00;;;;;15.31;100.00;100443.06;5051471;28;46491;-74
2022/12/23 06:51:10;;;;;;;;;0.00;0.00;;;;;15.28;100.00;100443.97;5051364;28;61320;-71
2022/12/23 06:53:35;;;;;;;;;0.00;0.00;;;;;15.29;100.00;100444.88;5057682;28;45466;-73
2022/12/23 06:56:02;;;;;;;;;0.00;0.00;;;;;15.26;100.00;100421.84;5051519;28;45344;-73
2022/12/23 06:58:27;;;;;;;;;0.00;0.00;;;;;15.25;100.00;100420.09;5056979;28;47662;-73
2022/12/23 07:00:53;;;;;;;;;0.00;0.00;;;;;15.32;100.00;100428.84;5057588;28;45617;-72
2022/12/23 07:03:18;;;;;;;;;2.00;0.00;;;;;15.32;100.00;100427.06;5047464;28;46319;-73
2022/12/23 07:05:50;;;;;;;;;0.00;0.00;;;;;15.32;100.00;100423.53;5044507;28;45488;-72
2022/12/23 07:08:17;;;;;;;;;0.00;0.00;;;;;15.30;100.00;100420.03;5043490;28;46093;-73
2022/12/23 07:10:42;;;;;;;;;1.00;0.00;;;;;15.29;100.00;100424.47;5051911;28;45485;-73
2022/12/23 07:13:07;;;;;;;;;0.00;0.00;;;;;15.34;100.00;100424.38;5049477;28;49203;-73
2022/12/23 07:15:33;;;;;;;;;0.00;0.00;;;;;15.34;100.00;100414.66;5048073;28;45621;-73
2022/12/23 07:17:58;;;;;;;;;0.00;0.00;;;;;15.36;100.00;100415.50;5052312;28;57262;-73
2022/12/23 07:20:23;;;;;;;;;0.00;0.00;;;;;15.34;100.00;100408.41;5048870;28;45501;-73
2022/12/23 07:22:52;;;;;;;;;0.00;0.00;;;;;15.39;100.00;100418.09;5052795;28;52376;-72
2022/12/23 07:25:17;;;;;;;;;0.00;0.00;;;;;15.39;100.00;100404.81;5054628;28;45332;-74
2022/12/23 07:27:43;;;;;;;;;0.00;0.00;;;;;15.40;100.00;100403.91;5045267;28;57211;-73
2022/12/23 07:30:08;;;;;;;;;0.00;0.00;;;;;15.37;100.00;100395.94;5047338;28;45399;-73
2022/12/23 07:32:34;;;;;;;;;0.00;0.00;;;;;15.42;100.00;100398.53;5055140;28;45434;-73
2022/12/23 07:34:59;;;;;;;;;0.00;0.00;;;;;15.43;100.00;100406.50;5055222;28;45581;-73
2022/12/23 07:37:24;;;;;;;;;0.00;0.00;;;;;15.43;100.00;100408.28;5056040;28;56908;-74
2022/12/23 07:39:50;;;;;;;;;0.00;0.00;;;;;15.42;100.00;100409.19;5053552;28;57262;-71
2022/12/23 07:42:15;;;;;;;;;0.00;0.00;;;;;15.45;100.00;100415.34;5048966;28;56066;-73
2022/12/23 07:44:40;;;;;;;;;1.00;0.00;;;;;15.46;100.00;100406.47;5052910;28;46398;-73
2022/12/23 07:47:06;;;;;;;;;0.00;0.00;;;;;15.45;100.00;100404.72;5052176;28;61800;-73
2022/12/23 07:49:31;;;;;;;;;0.00;0.00;;;;;15.49;100.00;100417.94;5053621;28;45406;-73
2022/12/23 07:51:56;;;;;;;;;1.00;0.00;;;;;15.49;100.00;100410.84;5050146;28;56428;-73
2022/12/23 07:54:22;;;;;;;;;0.33;0.00;;;;;15.51;100.00;100422.34;5046228;28;52077;-73
2022/12/23 07:56:47;;;;;;;;;0.00;0.00;;;;;15.51;100.00;100398.41;5045844;28;47406;-73
2022/12/23 07:59:13;;;;;;;;;0.00;0.00;;;;;15.52;100.00;100397.50;5054625;28;59921;-74
2022/12/23 08:01:38;;;;;;;;;1.00;1.00;;;;;15.50;100.00;100390.44;5052180;28;45628;-74
2022/12/23 08:04:03;;;;;;;;;0.00;0.00;;;;;15.51;100.00;100387.75;5053718;28;54350;-74
2022/12/23 08:06:29;;;;;;;;;0.00;0.00;;;;;15.52;100.00;100378.00;5052308;28;46695;-73
2022/12/23 08:08:54;;;;;;;;;1.00;0.00;;;;;15.56;100.00;100398.34;5052429;28;46252;-73
2022/12/23 08:11:19;;;;;;;;;0.00;0.00;;;;;15.55;100.00;100402.75;5054811;28;55953;-73
2022/12/23 08:13:47;;;;;;;;;0.00;0.00;;;;;15.52;100.00;100384.19;5052638;28;45495;-73
2022/12/23 08:16:12;;;;;;;;;0.00;0.00;;;;;15.57;100.00;100384.13;5050775;28;47623;-73
2022/12/23 08:18:39;;;;;;;;;0.00;0.00;;;;;15.53;100.00;100371.75;5054202;28;45478;-73
2022/12/23 08:21:15;;;;;;;;;0.00;0.00;;;;;15.55;100.00;100359.31;5052667;28;46338;-73
2022/12/23 08:23:42;;;;;;;;;0.00;0.00;;;;;15.59;100.00;100372.53;5052464;28;45535;-74
2022/12/23 08:26:10;;;;;;;;;0.00;0.00;;;;;15.61;100.00;100369.88;5053305;28;46557;-73
2022/12/23 08:28:36;;;;;;;;;0.00;0.00;;;;;15.61;100.00;100369.88;5049866;28;45593;-73
2022/12/23 08:31:03;;;;;;;;;0.00;0.00;;;;;15.56;100.00;100353.97;5054465;28;45505;-74
2022/12/23 08:33:29;;;;;;;;;0.67;0.00;;;;;15.63;100.00;100363.63;5051052;28;45482;-75
2022/12/23 08:35:54;;;;;;;;;0.33;0.00;;;;;15.60;100.00;100366.28;5050036;28;47357;-74
2022/12/23 08:38:20;;;;;;;;;0.00;0.00;;;;;15.64;100.00;100362.72;5053207;28;46913;-75
2022/12/23 08:40:45;;;;;;;;;0.00;0.00;;;;;15.62;100.00;100360.97;5053741;28;45467;-74
2022/12/23 08:43:11;;;;;;;;;0.00;0.00;;;;;15.66;100.00;100366.25;5052813;28;53139;-74
2022/12/23 08:45:37;;;;;;;;;0.00;0.00;;;;;15.63;100.00;100349.44;5050395;28;46347;-73
2022/12/23 08:48:04;;;;;;;;;1.33;0.00;;;;;15.68;100.00;100347.59;5051439;28;45450;-74
2022/12/23 08:50:29;;;;;;;;;0.00;0.00;;;;;15.66;100.00;100344.97;5045223;28;45222;-74
2022/12/23 08:52:54;;;;;;;;;0.00;0.00;;;;;15.69;100.00;100344.88;5046890;28;45525;-75
2022/12/23 08:55:20;;;;;;;;;0.00;0.00;;;;;15.69;100.00;100326.25;5047728;28;59103;-73
2022/12/23 08:57:45;;;;;;;;;0.00;0.00;;;;;15.73;100.00;100329.75;5045953;28;52388;-74
2022/12/23 09:00:11;;;;;;;;;0.00;0.00;;;;;15.70;100.00;100320.03;5050877;28;46318;-73
2022/12/23 09:02:36;;;;;;;;;0.00;0.00;;;;;15.74;100.00;100307.53;5038882;28;45494;-73
2022/12/23 09:05:02;;;;;;;;;0.00;0.00;;;;;15.73;100.00;100281.84;5041967;28;48259;-74
2022/12/23 09:07:27;;;;;;;;;0.00;0.00;;;;;15.74;100.00;100267.63;5031213;28;45534;-74
2022/12/23 09:09:52;;;;;;;;;0.00;0.00;;;;;15.75;100.00;100261.38;5045740;28;53587;-73
2022/12/23 09:12:18;;;;;;;;;1.00;0.00;;;;;15.74;100.00;100250.78;5050736;28;53693;-74
2022/12/23 09:14:46;;;;;;;;;0.00;0.00;;;;;15.74;100.00;100254.31;5057149;28;46019;-73
2022/12/23 09:17:12;;;;;;;;;1.67;0.00;;;;;15.78;100.00;100242.69;5056206;28;45490;-74
2022/12/23 09:19:37;;;;;;;;;0.00;0.00;;;;;15.79;100.00;100276.41;5056195;28;47061;-73
2022/12/23 09:22:02;;;;;;;;;1.33;0.00;;;;;15.80;100.00;100295.91;5057016;28;51439;-74
2022/12/23 09:24:28;;;;;;;;;0.00;0.00;;;;;15.83;100.00;100295.84;5053711;28;60367;-73
2022/12/23 09:26:53;;;;;;;;;0.00;0.00;;;;;15.78;100.00;100290.63;5055752;28;45277;-73
2022/12/23 09:29:18;;;;;;;;;0.00;0.00;;;;;15.83;100.00;100301.19;5056041;28;45546;-73
2022/12/23 09:31:44;;;;;;;;;0.00;0.00;;;;;15.84;100.00;100326.91;5051427;28;45359;-73
2022/12/23 09:34:09;;;;;;;;;0.00;0.00;;;;;15.84;100.00;100314.47;5054095;28;61642;-73
2022/12/23 09:36:35;;;;;;;;;0.00;0.00;;;;;15.88;100.00;100333.94;5052829;28;45587;-72
2022/12/23 09:39:00;;;;;;;;;0.00;0.00;;;;;15.84;100.00;100332.22;5054844;28;45540;-74
2022/12/23 09:41:28;;;;;;;;;0.00;0.00;;;;;15.89;100.00;100333.00;5055208;28;45531;-73
2022/12/23 09:44:25;;;;;;;;;0.00;0.00;;;;;15.91;100.00;100328.53;5042641;28;46532;-73
2022/12/23 09:46:54;;;;;;;;;0.00;0.00;;;;;15.92;100.00;100316.97;5052477;28;45479;-72
2022/12/23 09:49:21;;;;;;;;;0.00;0.00;;;;;15.92;100.00;100327.59;5029316;28;45594;-73
2022/12/23 09:51:47;;;;;;;;;0.00;0.00;;;;;15.94;100.00;100349.78;5026790;28;45567;-73
2022/12/23 09:54:25;;;;;;;;;1.00;0.00;;;;;15.92;100.00;100325.81;5048822;28;46684;-73
2022/12/23 09:56:50;;;;;;;;;0.00;0.00;;;;;15.95;100.00;100319.56;5037142;28;45511;-74
2022/12/23 09:59:43;;;;;;;;;0.00;0.00;;;;;15.96;100.00;100326.66;5051869;28;45548;-74
2022/12/23 10:02:21;;;;;;;;;1.00;0.00;;;;;15.95;100.00;100315.13;5054717;28;45387;-73
2022/12/23 10:05:34;;;;;;;;;0.00;0.00;;;;;16.01;100.00;100315.91;5048771;28;47780;-73
2022/12/23 10:08:14;;;;;;;;;0.00;0.00;;;;;16.01;100.00;100321.25;5039310;28;45577;-74
2022/12/23 10:10:51;;;;;;;;;0.00;0.00;;;;;16.02;100.00;100312.34;5052618;28;45545;-73
2022/12/23 10:13:26;;;;;;;;;0.00;0.00;;;;;15.99;100.00;100297.31;5035855;28;45493;-73
2022/12/23 10:15:53;;;;;;;;;0.00;0.00;;;;;16.05;100.00;100322.94;5052823;28;47587;-73
2022/12/23 10:18:39;;;;;;;;;0.00;0.00;;;;;16.07;100.00;100292.69;5033542;28;45316;-74
2022/12/23 10:21:11;;;;;;;;;3.00;0.00;;;;;16.10;100.00;100303.31;5026497;28;45429;-73
2022/12/23 10:23:39;;;;;;;;;0.00;0.00;;;;;16.07;100.00;100290.03;5016640;28;45571;-70
2022/12/23 10:26:14;;;;;;;;;0.00;0.00;;;;;16.06;100.00;100301.59;5052065;28;47649;-70
2022/12/23 10:28:39;;;;;;;;;0.00;0.00;;;;;16.07;100.00;100310.47;5029384;28;45565;-69
2022/12/23 10:31:14;;;;;;;;;0.00;0.00;;;;;16.03;100.00;100301.66;5052360;28;59287;-70
2022/12/23 10:33:43;;;;;;;;;0.00;0.00;;;;;16.05;100.00;100298.97;5052761;28;46673;-72
2022/12/23 10:36:17;;;;;;;;;0.00;0.00;;;;;16.05;100.00;100301.63;5036332;28;47209;-71
2022/12/23 10:39:04;;;;;;;;;0.00;0.00;;;;;16.05;100.00;100307.84;5053565;28;45461;-71
2022/12/23 10:41:37;;;;;;;;;0.00;0.00;;;;;16.04;100.00;100316.75;5051683;28;46008;-72
2022/12/23 10:44:26;;;;;;;;;0.00;0.00;;;;;16.04;100.00;100319.41;5053293;28;45657;-72
2022/12/23 10:47:36;;;;;;;;;1.00;0.00;;;;;16.07;100.00;100299.81;5028292;28;46308;-70
2022/12/23 10:50:35;;;;;;;;;0.00;0.00;;;;;16.06;100.00;100285.63;5047616;28;45984;-69
2022/12/23 10:53:04;;;;;;;;;0.00;0.00;;;;;16.10;100.00;100282.00;5050491;28;45546;-72
2022/12/23 10:55:34;;;;;;;;;0.00;0.00;;;;;16.16;100.00;100279.19;5021899;28;45387;-71
2022/12/23 10:58:06;;;;;;;;;1.00;0.00;;;;;16.15;100.00;100271.25;5031231;28;45302;-71
2022/12/23 11:00:31;;;;;;;;;0.00;0.00;;;;;16.27;100.00;100272.78;5029287;28;45727;-71
2022/12/23 11:09:46;;;;;;;;;0.00;0.00;;;;;16.36;100.00;100294.78;5047518;28;45502;-71
2022/12/23 11:12:12;;;;;;;;;0.00;0.00;;;;;16.37;100.00;100306.31;5029098;28;45446;-72
2022/12/23 11:14:40;;;;;;;;;0.00;0.00;;;;;16.39;100.00;100299.16;5036531;28;45422;-74
2022/12/23 11:17:24;;;;;;;;;0.00;0.00;;;;;16.42;100.00;100320.41;5034460;28;45393;-73
2022/12/23 11:20:10;;;;;;;;;0.00;0.00;;;;;16.43;100.00;100296.38;5051644;28;47254;-73
2022/12/23 11:22:49;;;;;;;;;0.00;0.00;;;;;16.44;100.00;100313.25;5054696;28;45443;-73
2022/12/23 11:25:50;;;;;;;;;0.00;0.00;;;;;16.48;100.00;100314.94;5052337;28;45425;-75
2022/12/23 11:28:18;;;;;;;;;0.00;0.00;;;;;16.50;100.00;100331.78;5054692;28;45931;-72
2022/12/23 11:30:49;;;;;;;;;0.67;0.00;;;;;16.53;100.00;100314.84;5053391;28;45707;-72
2022/12/23 11:33:24;;;;;;;;;0.00;0.00;;;;;16.57;100.00;100298.75;5053881;28;45451;-73
2022/12/23 11:36:27;;;;;;;;;0.00;0.00;;;;;16.63;100.00;100295.97;5053097;28;45312;-73
2022/12/23 11:39:21;;;;;;;;;0.00;0.00;;;;;16.65;100.00;100304.78;5051458;28;45657;-74
2022/12/23 11:41:50;;;;;;;;;0.00;0.00;;;;;16.61;100.00;100295.09;5048384;28;47462;-73
2022/12/23 11:44:24;;;;;;;;;0.00;0.00;;;;;16.77;100.00;100304.53;5055611;28;46729;-73
2022/12/23 11:46:49;;;;;;;;;1.00;0.00;;;;;16.80;100.00;100300.06;5051507;28;45613;-75
2022/12/23 11:49:19;;;;;;;;;0.67;0.00;;;;;16.84;100.00;100291.09;5037264;28;45414;-73
2022/12/23 11:52:00;;;;;;;;;0.00;0.00;;;;;16.93;100.00;100294.38;5054952;28;45828;-73
2022/12/23 11:54:26;;;;;;;;;0.00;0.00;;;;;16.98;100.00;100295.16;5049879;28;45509;-76
2022/12/23 11:56:52;;;;;;;;;0.00;0.00;;;;;17.11;100.00;100297.56;5054979;28;45559;-74
2022/12/23 11:59:39;;;;;;;;;0.00;0.00;;;;;17.14;100.00;100300.13;5051656;28;47524;-76
2022/12/23 12:02:21;;;;;;;;;0.00;0.00;;;;;17.14;100.00;100293.00;5035596;28;46693;-73
2022/12/23 12:05:07;;;;;;;;;1.00;0.00;;;;;17.21;100.00;100296.41;5055944;28;46273;-74